sensor_id;sensor_type;location;lat;lon;timestamp;temperature;humidity
27667;DHT22;15074;50.940;5.282;2023-10-09T00:00:10;15.60;99.90
27667;DHT22;15074;50.940;5.282;2023-10-09T00:02:54;15.70;99.90
27667;DHT22;15074;50.940;5.282;2023-10-09T00:05:20;15.60;99.90
27667;DHT22;15074;50.940;5.282;2023-10-09T00:07:50;15.70;99.90
27667;DHT22;15074;50.940;5.282;2023-10-09T00:10:21;15.60;99.90
27667;DHT22;15074;50.940;5.282;2023-10-09T00:12:47;15.50;99.90
27667;DHT22;15074;50.940;5.282;2023-10-09T00:15:15;15.50;99.90
27667;DHT22;15074;50.940;5.282;2023-10-09T00:17:43;15.50;99.90
27667;DHT22;15074;50.940;5.282;2023-10-09T00:20:13;15.40;99.90
27667;DHT22;15074;50.940;5.282;2023-10-09T00:22:47;15.40;99.90
27667;DHT22;15074;50.940;5.282;2023-10-09T00:25:13;15.30;99.90
27667;DHT22;15074;50.940;5.282;2023-10-09T00:27:47;15.20;99.90
27667;DHT22;15074;50.940;5.282;2023-10-09T00:30:15;15.10;99.90
27667;DHT22;15074;50.940;5.282;2023-10-09T00:32:43;15.10;99.90
27667;DHT22;15074;50.940;5.282;2023-10-09T00:35:25;15.10;99.90
27667;DHT22;15074;50.940;5.282;2023-10-09T00:38:16;15.10;99.90
27667;DHT22;15074;50.940;5.282;2023-10-09T00:40:48;15.10;99.90
27667;DHT22;15074;50.940;5.282;2023-10-09T00:43:21;15.20;99.90
27667;DHT22;15074;50.940;5.282;2023-10-09T00:45:53;15.10;99.90
27667;DHT22;15074;50.940;5.282;2023-10-09T00:48:19;15.10;99.90
27667;DHT22;15074;50.940;5.282;2023-10-09T00:50:57;15.20;99.90
27667;DHT22;15074;50.940;5.282;2023-10-09T00:53:26;15.20;99.90
27667;DHT22;15074;50.940;5.282;2023-10-09T00:56:02;15.20;99.90
27667;DHT22;15074;50.940;5.282;2023-10-09T00:58:44;15.30;99.90
27667;DHT22;15074;50.940;5.282;2023-10-09T01:01:12;15.40;99.90
27667;DHT22;15074;50.940;5.282;2023-10-09T01:03:42;15.40;99.90
27667;DHT22;15074;50.940;5.282;2023-10-09T01:06:09;15.40;99.90
27667;DHT22;15074;50.940;5.282;2023-10-09T01:08:37;15.50;99.90
27667;DHT22;15074;50.940;5.282;2023-10-09T01:11:15;15.50;99.90
27667;DHT22;15074;50.940;5.282;2023-10-09T01:13:49;15.50;99.90
27667;DHT22;15074;50.940;5.282;2023-10-09T01:16:20;15.60;99.90
27667;DHT22;15074;50.940;5.282;2023-10-09T01:18:49;15.60;99.90
27667;DHT22;15074;50.940;5.282;2023-10-09T01:21:16;15.70;99.90
27667;DHT22;15074;50.940;5.282;2023-10-09T01:23:45;15.70;99.90
27667;DHT22;15074;50.940;5.282;2023-10-09T01:26:42;15.70;99.90
27667;DHT22;15074;50.940;5.282;2023-10-09T01:29:13;15.70;99.90
27667;DHT22;15074;50.940;5.282;2023-10-09T01:31:48;15.70;99.90
27667;DHT22;15074;50.940;5.282;2023-10-09T01:34:23;15.60;99.90
27667;DHT22;15074;50.940;5.282;2023-10-09T01:37:08;15.70;99.90
27667;DHT22;15074;50.940;5.282;2023-10-09T01:39:58;15.70;99.90
27667;DHT22;15074;50.940;5.282;2023-10-09T01:42:25;15.60;99.90
27667;DHT22;15074;50.940;5.282;2023-10-09T01:45:00;15.60;99.90
27667;DHT22;15074;50.940;5.282;2023-10-09T01:47:56;15.60;99.90
27667;DHT22;15074;50.940;5.282;2023-10-09T01:50:22;15.60;99.90
27667;DHT22;15074;50.940;5.282;2023-10-09T01:52:50;15.60;99.90
27667;DHT22;15074;50.940;5.282;2023-10-09T01:55:17;15.60;99.90
27667;DHT22;15074;50.940;5.282;2023-10-09T01:57:59;15.60;99.90
27667;DHT22;15074;50.940;5.282;2023-10-09T02:00:31;15.60;99.90
27667;DHT22;15074;50.940;5.282;2023-10-09T02:03:00;15.60;99.90
27667;DHT22;15074;50.940;5.282;2023-10-09T02:05:30;15.70;99.90
27667;DHT22;15074;50.940;5.282;2023-10-09T02:07:59;15.70;99.90
27667;DHT22;15074;50.940;5.282;2023-10-09T02:10:24;15.70;99.90
27667;DHT22;15074;50.940;5.282;2023-10-09T02:12:53;15.70;99.90
27667;DHT22;15074;50.940;5.282;2023-10-09T02:15:29;15.70;99.90
27667;DHT22;15074;50.940;5.282;2023-10-09T02:18:18;15.70;99.90
27667;DHT22;15074;50.940;5.282;2023-10-09T02:20:48;15.70;99.90
27667;DHT22;15074;50.940;5.282;2023-10-09T02:23:35;15.70;99.90
27667;DHT22;15074;50.940;5.282;2023-10-09T02:26:10;15.70;99.90
27667;DHT22;15074;50.940;5.282;2023-10-09T02:28:43;15.60;99.90
27667;DHT22;15074;50.940;5.282;2023-10-09T02:31:10;15.60;99.90
27667;DHT22;15074;50.940;5.282;2023-10-09T02:33:37;15.60;99.90
27667;DHT22;15074;50.940;5.282;2023-10-09T02:36:07;15.70;99.90
27667;DHT22;15074;50.940;5.282;2023-10-09T02:38:34;15.70;99.90
27667;DHT22;15074;50.940;5.282;2023-10-09T02:41:01;15.60;99.90
27667;DHT22;15074;50.940;5.282;2023-10-09T02:43:32;15.60;99.90
27667;DHT22;15074;50.940;5.282;2023-10-09T02:46:26;15.60;99.90
27667;DHT22;15074;50.940;5.282;2023-10-09T02:48:56;15.60;99.90
27667;DHT22;15074;50.940;5.282;2023-10-09T02:51:30;15.60;99.90
27667;DHT22;15074;50.940;5.282;2023-10-09T02:54:01;15.50;99.90
27667;DHT22;15074;50.940;5.282;2023-10-09T02:56:36;15.50;99.90
27667;DHT22;15074;50.940;5.282;2023-10-09T02:59:06;15.50;99.90
27667;DHT22;15074;50.940;5.282;2023-10-09T03:01:33;15.50;99.90
27667;DHT22;15074;50.940;5.282;2023-10-09T03:04:03;15.50;99.90
27667;DHT22;15074;50.940;5.282;2023-10-09T03:06:31;15.60;99.90
27667;DHT22;15074;50.940;5.282;2023-10-09T03:08:57;15.60;99.90
27667;DHT22;15074;50.940;5.282;2023-10-09T03:11:23;15.50;99.90
27667;DHT22;15074;50.940;5.282;2023-10-09T03:13:54;15.40;99.90
27667;DHT22;15074;50.940;5.282;2023-10-09T03:16:21;15.40;99.90
27667;DHT22;15074;50.940;5.282;2023-10-09T03:18:52;15.40;99.90
27667;DHT22;15074;50.940;5.282;2023-10-09T03:21:21;15.40;99.90
27667;DHT22;15074;50.940;5.282;2023-10-09T03:23:48;15.50;99.90
27667;DHT22;15074;50.940;5.282;2023-10-09T03:26:17;15.40;99.90
27667;DHT22;15074;50.940;5.282;2023-10-09T03:28:47;15.50;99.90
27667;DHT22;15074;50.940;5.282;2023-10-09T03:31:12;15.50;99.90
27667;DHT22;15074;50.940;5.282;2023-10-09T03:33:39;15.50;99.90
27667;DHT22;15074;50.940;5.282;2023-10-09T03:36:05;15.60;99.90
27667;DHT22;15074;50.940;5.282;2023-10-09T03:38:38;15.60;99.90
27667;DHT22;15074;50.940;5.282;2023-10-09T03:41:06;15.60;99.90
27667;DHT22;15074;50.940;5.282;2023-10-09T03:43:36;15.50;99.90
27667;DHT22;15074;50.940;5.282;2023-10-09T03:46:08;15.40;99.90
27667;DHT22;15074;50.940;5.282;2023-10-09T03:48:41;15.40;99.90
27667;DHT22;15074;50.940;5.282;2023-10-09T03:51:09;15.50;99.90
27667;DHT22;15074;50.940;5.282;2023-10-09T03:53:36;15.50;99.90
27667;DHT22;15074;50.940;5.282;2023-10-09T03:56:05;15.50;99.90
27667;DHT22;15074;50.940;5.282;2023-10-09T03:58:38;15.50;99.90
27667;DHT22;15074;50.940;5.282;2023-10-09T04:01:09;15.50;99.90
27667;DHT22;15074;50.940;5.282;2023-10-09T04:03:56;15.50;99.90
27667;DHT22;15074;50.940;5.282;2023-10-09T04:06:29;15.60;99.90
27667;DHT22;15074;50.940;5.282;2023-10-09T04:09:09;15.60;99.90
27667;DHT22;15074;50.940;5.282;2023-10-09T04:11:51;15.50;99.90
27667;DHT22;15074;50.940;5.282;2023-10-09T04:14:35;15.50;99.90
27667;DHT22;15074;50.940;5.282;2023-10-09T04:17:02;15.40;99.90
27667;DHT22;15074;50.940;5.282;2023-10-09T04:19:32;15.40;99.90
27667;DHT22;15074;50.940;5.282;2023-10-09T04:22:14;15.40;99.90
27667;DHT22;15074;50.940;5.282;2023-10-09T04:24:51;15.30;99.90
27667;DHT22;15074;50.940;5.282;2023-10-09T04:27:17;15.30;99.90
27667;DHT22;15074;50.940;5.282;2023-10-09T04:29:43;15.30;99.90
27667;DHT22;15074;50.940;5.282;2023-10-09T04:32:15;15.40;99.90
27667;DHT22;15074;50.940;5.282;2023-10-09T04:34:43;15.40;99.90
27667;DHT22;15074;50.940;5.282;2023-10-09T04:37:21;15.50;99.90
27667;DHT22;15074;50.940;5.282;2023-10-09T04:40:08;15.60;99.90
27667;DHT22;15074;50.940;5.282;2023-10-09T04:42:38;15.50;99.90
27667;DHT22;15074;50.940;5.282;2023-10-09T04:45:07;15.50;99.90
27667;DHT22;15074;50.940;5.282;2023-10-09T04:47:36;15.60;99.90
27667;DHT22;15074;50.940;5.282;2023-10-09T04:50:06;15.50;99.90
27667;DHT22;15074;50.940;5.282;2023-10-09T04:52:44;15.60;99.90
27667;DHT22;15074;50.940;5.282;2023-10-09T04:55:10;15.60;99.90
27667;DHT22;15074;50.940;5.282;2023-10-09T04:57:40;15.60;99.90
27667;DHT22;15074;50.940;5.282;2023-10-09T05:00:09;15.60;99.90
27667;DHT22;15074;50.940;5.282;2023-10-09T05:02:54;15.60;99.90
27667;DHT22;15074;50.940;5.282;2023-10-09T05:05:24;15.60;99.90
27667;DHT22;15074;50.940;5.282;2023-10-09T05:08:15;15.60;99.90
27667;DHT22;15074;50.940;5.282;2023-10-09T05:10:50;15.70;99.90
27667;DHT22;15074;50.940;5.282;2023-10-09T05:13:34;15.60;99.90
27667;DHT22;15074;50.940;5.282;2023-10-09T05:16:07;15.60;99.90
27667;DHT22;15074;50.940;5.282;2023-10-09T05:18:47;15.60;99.90
27667;DHT22;15074;50.940;5.282;2023-10-09T05:21:26;15.50;99.90
27667;DHT22;15074;50.940;5.282;2023-10-09T05:24:02;15.50;99.90
27667;DHT22;15074;50.940;5.282;2023-10-09T05:26:41;15.60;99.90
27667;DHT22;15074;50.940;5.282;2023-10-09T05:29:10;15.70;99.90
27667;DHT22;15074;50.940;5.282;2023-10-09T05:31:46;15.70;99.90
27667;DHT22;15074;50.940;5.282;2023-10-09T05:34:21;15.70;99.90
27667;DHT22;15074;50.940;5.282;2023-10-09T05:36:47;15.70;99.90
27667;DHT22;15074;50.940;5.282;2023-10-09T05:39:13;15.70;99.90
27667;DHT22;15074;50.940;5.282;2023-10-09T05:42:06;15.70;99.90
27667;DHT22;15074;50.940;5.282;2023-10-09T05:44:42;15.60;99.90
27667;DHT22;15074;50.940;5.282;2023-10-09T05:47:26;15.50;99.90
27667;DHT22;15074;50.940;5.282;2023-10-09T05:49:55;15.60;99.90
27667;DHT22;15074;50.940;5.282;2023-10-09T05:52:26;15.60;99.90
27667;DHT22;15074;50.940;5.282;2023-10-09T05:55:25;15.60;99.90
27667;DHT22;15074;50.940;5.282;2023-10-09T05:57:55;15.60;99.90
27667;DHT22;15074;50.940;5.282;2023-10-09T06:00:39;15.60;99.90
27667;DHT22;15074;50.940;5.282;2023-10-09T06:03:23;15.60;99.90
27667;DHT22;15074;50.940;5.282;2023-10-09T06:05:56;15.60;99.90
27667;DHT22;15074;50.940;5.282;2023-10-09T06:08:23;15.60;99.90
27667;DHT22;15074;50.940;5.282;2023-10-09T06:11:24;15.60;99.90
27667;DHT22;15074;50.940;5.282;2023-10-09T06:14:03;15.70;99.90
27667;DHT22;15074;50.940;5.282;2023-10-09T06:16:39;15.80;99.90
27667;DHT22;15074;50.940;5.282;2023-10-09T06:19:05;15.90;99.90
27667;DHT22;15074;50.940;5.282;2023-10-09T06:21:39;15.90;99.90
27667;DHT22;15074;50.940;5.282;2023-10-09T06:24:26;15.80;99.90
27667;DHT22;15074;50.940;5.282;2023-10-09T06:26:59;15.80;99.90
27667;DHT22;15074;50.940;5.282;2023-10-09T06:29:29;15.90;99.90
27667;DHT22;15074;50.940;5.282;2023-10-09T06:32:07;15.90;99.90
27667;DHT22;15074;50.940;5.282;2023-10-09T06:34:48;15.90;99.90
27667;DHT22;15074;50.940;5.282;2023-10-09T06:37:20;15.90;99.90
27667;DHT22;15074;50.940;5.282;2023-10-09T06:39:56;15.80;99.90
27667;DHT22;15074;50.940;5.282;2023-10-09T06:42:22;15.80;99.90
27667;DHT22;15074;50.940;5.282;2023-10-09T06:47:31;15.80;99.90
27667;DHT22;15074;50.940;5.282;2023-10-09T06:50:11;15.80;99.90
27667;DHT22;15074;50.940;5.282;2023-10-09T06:52:46;15.90;99.90
27667;DHT22;15074;50.940;5.282;2023-10-09T06:55:44;16.00;99.90
27667;DHT22;15074;50.940;5.282;2023-10-09T06:58:30;16.10;99.90
27667;DHT22;15074;50.940;5.282;2023-10-09T07:01:08;16.20;99.90
27667;DHT22;15074;50.940;5.282;2023-10-09T07:03:57;16.20;99.90
27667;DHT22;15074;50.940;5.282;2023-10-09T07:06:36;16.10;99.90
27667;DHT22;15074;50.940;5.282;2023-10-09T07:09:02;16.00;99.90
27667;DHT22;15074;50.940;5.282;2023-10-09T07:11:41;16.10;99.90
27667;DHT22;15074;50.940;5.282;2023-10-09T07:17:01;16.00;99.90
27667;DHT22;15074;50.940;5.282;2023-10-09T07:19:28;15.90;99.90
27667;DHT22;15074;50.940;5.282;2023-10-09T07:22:00;15.90;99.90
27667;DHT22;15074;50.940;5.282;2023-10-09T07:24:32;15.90;99.90
27667;DHT22;15074;50.940;5.282;2023-10-09T07:27:09;16.00;99.90
27667;DHT22;15074;50.940;5.282;2023-10-09T07:29:38;16.00;99.90
27667;DHT22;15074;50.940;5.282;2023-10-09T07:32:19;16.10;99.90
27667;DHT22;15074;50.940;5.282;2023-10-09T07:34:50;16.00;99.90
27667;DHT22;15074;50.940;5.282;2023-10-09T07:37:23;16.00;99.90
27667;DHT22;15074;50.940;5.282;2023-10-09T07:39:52;16.00;99.90
27667;DHT22;15074;50.940;5.282;2023-10-09T07:42:24;16.10;99.90
27667;DHT22;15074;50.940;5.282;2023-10-09T07:45:12;16.10;99.90
27667;DHT22;15074;50.940;5.282;2023-10-09T07:47:59;16.10;99.90
27667;DHT22;15074;50.940;5.282;2023-10-09T07:50:25;16.30;99.90
27667;DHT22;15074;50.940;5.282;2023-10-09T07:52:57;16.50;99.90
27667;DHT22;15074;50.940;5.282;2023-10-09T07:55:40;16.70;99.90
27667;DHT22;15074;50.940;5.282;2023-10-09T07:58:11;17.00;99.90
27667;DHT22;15074;50.940;5.282;2023-10-09T08:00:37;17.10;99.90
27667;DHT22;15074;50.940;5.282;2023-10-09T08:03:23;17.10;99.90
27667;DHT22;15074;50.940;5.282;2023-10-09T08:05:50;17.20;99.90
27667;DHT22;15074;50.940;5.282;2023-10-09T08:08:18;17.30;99.90
27667;DHT22;15074;50.940;5.282;2023-10-09T08:10:59;17.50;99.90
27667;DHT22;15074;50.940;5.282;2023-10-09T08:13:44;18.00;99.90
27667;DHT22;15074;50.940;5.282;2023-10-09T08:16:15;18.50;99.90
27667;DHT22;15074;50.940;5.282;2023-10-09T08:18:47;18.50;99.90
27667;DHT22;15074;50.940;5.282;2023-10-09T08:21:17;18.10;99.90
27667;DHT22;15074;50.940;5.282;2023-10-09T08:23:43;17.90;99.90
27667;DHT22;15074;50.940;5.282;2023-10-09T08:26:16;17.70;99.90
27667;DHT22;15074;50.940;5.282;2023-10-09T08:28:54;17.70;99.90
27667;DHT22;15074;50.940;5.282;2023-10-09T08:31:40;17.70;99.90
27667;DHT22;15074;50.940;5.282;2023-10-09T08:34:22;17.80;99.90
27667;DHT22;15074;50.940;5.282;2023-10-09T08:36:52;18.20;99.90
27667;DHT22;15074;50.940;5.282;2023-10-09T08:39:24;18.70;99.90
27667;DHT22;15074;50.940;5.282;2023-10-09T08:41:54;19.00;99.90
27667;DHT22;15074;50.940;5.282;2023-10-09T08:44:23;19.10;99.90
27667;DHT22;15074;50.940;5.282;2023-10-09T08:46:56;18.90;99.90
27667;DHT22;15074;50.940;5.282;2023-10-09T08:49:25;18.90;99.90
27667;DHT22;15074;50.940;5.282;2023-10-09T08:51:51;19.00;99.90
27667;DHT22;15074;50.940;5.282;2023-10-09T08:54:18;19.00;99.90
27667;DHT22;15074;50.940;5.282;2023-10-09T08:56:46;19.20;99.90
27667;DHT22;15074;50.940;5.282;2023-10-09T08:59:19;19.40;99.90
27667;DHT22;15074;50.940;5.282;2023-10-09T09:01:49;19.60;99.90
27667;DHT22;15074;50.940;5.282;2023-10-09T09:04:34;20.40;99.90
27667;DHT22;15074;50.940;5.282;2023-10-09T09:06:59;20.20;99.90
27667;DHT22;15074;50.940;5.282;2023-10-09T09:09:27;20.30;99.90
27667;DHT22;15074;50.940;5.282;2023-10-09T09:11:56;20.50;99.90
27667;DHT22;15074;50.940;5.282;2023-10-09T09:14:38;20.60;99.90
27667;DHT22;15074;50.940;5.282;2023-10-09T09:17:05;20.70;99.90
27667;DHT22;15074;50.940;5.282;2023-10-09T09:19:36;20.50;99.90
27667;DHT22;15074;50.940;5.282;2023-10-09T09:22:03;20.40;99.90
27667;DHT22;15074;50.940;5.282;2023-10-09T09:24:38;20.90;99.90
27667;DHT22;15074;50.940;5.282;2023-10-09T09:27:05;21.30;99.90
27667;DHT22;15074;50.940;5.282;2023-10-09T09:29:46;21.60;99.90
27667;DHT22;15074;50.940;5.282;2023-10-09T09:32:27;22.00;99.90
27667;DHT22;15074;50.940;5.282;2023-10-09T09:35:01;22.50;99.90
27667;DHT22;15074;50.940;5.282;2023-10-09T09:37:30;23.10;99.90
27667;DHT22;15074;50.940;5.282;2023-10-09T09:40:06;23.80;99.90
27667;DHT22;15074;50.940;5.282;2023-10-09T09:42:58;24.00;99.90
27667;DHT22;15074;50.940;5.282;2023-10-09T09:45:37;23.80;99.90
27667;DHT22;15074;50.940;5.282;2023-10-09T09:48:04;23.80;99.90
27667;DHT22;15074;50.940;5.282;2023-10-09T09:50:32;24.40;99.90
27667;DHT22;15074;50.940;5.282;2023-10-09T09:52:59;24.90;99.90
27667;DHT22;15074;50.940;5.282;2023-10-09T09:55:28;25.10;99.90
27667;DHT22;15074;50.940;5.282;2023-10-09T09:57:58;25.00;99.90
27667;DHT22;15074;50.940;5.282;2023-10-09T10:00:27;24.60;99.90
27667;DHT22;15074;50.940;5.282;2023-10-09T10:03:14;24.50;99.90
27667;DHT22;15074;50.940;5.282;2023-10-09T10:05:42;24.80;99.90
27667;DHT22;15074;50.940;5.282;2023-10-09T10:08:14;24.70;99.90
27667;DHT22;15074;50.940;5.282;2023-10-09T10:10:44;24.00;99.90
27667;DHT22;15074;50.940;5.282;2023-10-09T10:13:15;23.60;99.90
27667;DHT22;15074;50.940;5.282;2023-10-09T10:16:14;23.30;99.90
27667;DHT22;15074;50.940;5.282;2023-10-09T10:19:12;23.30;99.90
27667;DHT22;15074;50.940;5.282;2023-10-09T10:21:43;23.10;99.90
27667;DHT22;15074;50.940;5.282;2023-10-09T10:35:20;22.90;99.90
27667;DHT22;15074;50.940;5.282;2023-10-09T10:37:58;23.30;99.90
27667;DHT22;15074;50.940;5.282;2023-10-09T10:40:33;23.50;99.90
27667;DHT22;15074;50.940;5.282;2023-10-09T10:43:06;23.50;99.90
27667;DHT22;15074;50.940;5.282;2023-10-09T10:45:39;23.30;99.90
27667;DHT22;15074;50.940;5.282;2023-10-09T10:48:11;23.10;99.90
27667;DHT22;15074;50.940;5.282;2023-10-09T10:51:06;22.90;99.90
27667;DHT22;15074;50.940;5.282;2023-10-09T10:53:32;22.80;99.90
27667;DHT22;15074;50.940;5.282;2023-10-09T10:56:13;22.60;99.90
27667;DHT22;15074;50.940;5.282;2023-10-09T10:58:39;22.70;99.90
27667;DHT22;15074;50.940;5.282;2023-10-09T11:01:24;22.60;99.90
27667;DHT22;15074;50.940;5.282;2023-10-09T11:03:51;22.70;99.90
27667;DHT22;15074;50.940;5.282;2023-10-09T11:06:31;22.60;99.90
27667;DHT22;15074;50.940;5.282;2023-10-09T11:09:09;22.70;99.90
27667;DHT22;15074;50.940;5.282;2023-10-09T11:11:50;22.90;99.90
27667;DHT22;15074;50.940;5.282;2023-10-09T11:14:21;22.70;99.90
27667;DHT22;15074;50.940;5.282;2023-10-09T11:16:50;22.90;99.90
27667;DHT22;15074;50.940;5.282;2023-10-09T11:19:20;22.90;99.90
27667;DHT22;15074;50.940;5.282;2023-10-09T11:21:58;23.10;99.90
27667;DHT22;15074;50.940;5.282;2023-10-09T11:24:40;22.90;99.90
27667;DHT22;15074;50.940;5.282;2023-10-09T11:27:09;23.00;99.90
27667;DHT22;15074;50.940;5.282;2023-10-09T11:29:49;23.40;99.90
27667;DHT22;15074;50.940;5.282;2023-10-09T11:32:17;23.20;99.90
27667;DHT22;15074;50.940;5.282;2023-10-09T11:34:47;23.30;99.90
27667;DHT22;15074;50.940;5.282;2023-10-09T11:37:23;23.60;99.90
27667;DHT22;15074;50.940;5.282;2023-10-09T11:39:58;23.50;99.90
27667;DHT22;15074;50.940;5.282;2023-10-09T11:42:28;23.20;99.90
27667;DHT22;15074;50.940;5.282;2023-10-09T11:45:22;23.10;99.90
27667;DHT22;15074;50.940;5.282;2023-10-09T11:47:56;23.20;99.90
27667;DHT22;15074;50.940;5.282;2023-10-09T11:50:46;23.30;99.90
27667;DHT22;15074;50.940;5.282;2023-10-09T11:53:15;23.50;99.90
27667;DHT22;15074;50.940;5.282;2023-10-09T11:55:59;23.50;99.90
27667;DHT22;15074;50.940;5.282;2023-10-09T11:58:25;23.30;99.90
27667;DHT22;15074;50.940;5.282;2023-10-09T12:00:52;23.50;99.90
27667;DHT22;15074;50.940;5.282;2023-10-09T12:03:24;23.80;99.90
27667;DHT22;15074;50.940;5.282;2023-10-09T12:05:57;24.10;99.90
27667;DHT22;15074;50.940;5.282;2023-10-09T12:08:24;24.30;99.90
27667;DHT22;15074;50.940;5.282;2023-10-09T12:10:53;24.80;99.90
27667;DHT22;15074;50.940;5.282;2023-10-09T12:13:23;25.00;99.90
27667;DHT22;15074;50.940;5.282;2023-10-09T12:15:53;24.90;99.90
27667;DHT22;15074;50.940;5.282;2023-10-09T12:18:20;24.50;99.90
27667;DHT22;15074;50.940;5.282;2023-10-09T12:20:47;24.60;99.90
27667;DHT22;15074;50.940;5.282;2023-10-09T12:23:17;24.50;99.90
27667;DHT22;15074;50.940;5.282;2023-10-09T12:25:43;24.10;99.90
27667;DHT22;15074;50.940;5.282;2023-10-09T12:28:12;24.10;99.90
27667;DHT22;15074;50.940;5.282;2023-10-09T12:30:38;24.10;99.90
27667;DHT22;15074;50.940;5.282;2023-10-09T12:33:08;23.90;99.90
27667;DHT22;15074;50.940;5.282;2023-10-09T12:35:38;23.80;99.90
27667;DHT22;15074;50.940;5.282;2023-10-09T12:38:04;23.30;99.90
27667;DHT22;15074;50.940;5.282;2023-10-09T12:40:38;23.40;99.90
27667;DHT22;15074;50.940;5.282;2023-10-09T12:43:18;23.30;99.90
27667;DHT22;15074;50.940;5.282;2023-10-09T12:45:45;23.20;99.90
27667;DHT22;15074;50.940;5.282;2023-10-09T12:48:11;23.00;99.90
27667;DHT22;15074;50.940;5.282;2023-10-09T12:50:40;23.10;99.90
27667;DHT22;15074;50.940;5.282;2023-10-09T12:53:10;23.20;99.90
27667;DHT22;15074;50.940;5.282;2023-10-09T12:55:40;23.20;99.90
27667;DHT22;15074;50.940;5.282;2023-10-09T12:58:08;23.00;99.90
27667;DHT22;15074;50.940;5.282;2023-10-09T13:00:35;22.80;99.90
27667;DHT22;15074;50.940;5.282;2023-10-09T13:03:05;23.00;99.90
27667;DHT22;15074;50.940;5.282;2023-10-09T13:05:43;23.00;99.90
27667;DHT22;15074;50.940;5.282;2023-10-09T13:08:18;22.90;99.90
27667;DHT22;15074;50.940;5.282;2023-10-09T13:10:47;22.90;99.90
27667;DHT22;15074;50.940;5.282;2023-10-09T13:13:20;22.70;99.90
27667;DHT22;15074;50.940;5.282;2023-10-09T13:15:46;22.60;99.90
27667;DHT22;15074;50.940;5.282;2023-10-09T13:18:12;22.50;99.90
27667;DHT22;15074;50.940;5.282;2023-10-09T13:20:40;22.50;99.90
27667;DHT22;15074;50.940;5.282;2023-10-09T13:23:05;22.50;99.90
27667;DHT22;15074;50.940;5.282;2023-10-09T13:25:32;22.50;99.90
27667;DHT22;15074;50.940;5.282;2023-10-09T13:28:05;22.30;99.90
27667;DHT22;15074;50.940;5.282;2023-10-09T13:30:31;22.30;99.90
27667;DHT22;15074;50.940;5.282;2023-10-09T13:33:04;22.50;99.90
27667;DHT22;15074;50.940;5.282;2023-10-09T13:35:31;22.60;99.90
27667;DHT22;15074;50.940;5.282;2023-10-09T13:38:04;22.40;99.90
27667;DHT22;15074;50.940;5.282;2023-10-09T13:40:33;22.50;99.90
27667;DHT22;15074;50.940;5.282;2023-10-09T13:43:03;22.40;99.90
27667;DHT22;15074;50.940;5.282;2023-10-09T13:45:28;22.50;99.90
27667;DHT22;15074;50.940;5.282;2023-10-09T13:47:59;22.90;99.90
27667;DHT22;15074;50.940;5.282;2023-10-09T13:50:28;23.10;99.90
27667;DHT22;15074;50.940;5.282;2023-10-09T13:52:57;23.30;99.90
27667;DHT22;15074;50.940;5.282;2023-10-09T13:55:23;23.40;99.90
27667;DHT22;15074;50.940;5.282;2023-10-09T13:57:57;23.70;99.90
27667;DHT22;15074;50.940;5.282;2023-10-09T14:00:23;24.10;99.90
27667;DHT22;15074;50.940;5.282;2023-10-09T14:03:02;24.10;99.90
27667;DHT22;15074;50.940;5.282;2023-10-09T14:05:37;24.20;99.90
27667;DHT22;15074;50.940;5.282;2023-10-09T14:08:10;24.00;99.90
27667;DHT22;15074;50.940;5.282;2023-10-09T14:10:37;23.60;99.90
27667;DHT22;15074;50.940;5.282;2023-10-09T14:13:04;22.90;99.90
27667;DHT22;15074;50.940;5.282;2023-10-09T14:15:37;22.60;99.90
27667;DHT22;15074;50.940;5.282;2023-10-09T14:18:06;22.50;99.90
27667;DHT22;15074;50.940;5.282;2023-10-09T14:20:34;22.40;99.90
27667;DHT22;15074;50.940;5.282;2023-10-09T14:23:00;22.40;99.90
27667;DHT22;15074;50.940;5.282;2023-10-09T14:25:36;22.30;99.90
27667;DHT22;15074;50.940;5.282;2023-10-09T14:28:09;22.20;99.90
27667;DHT22;15074;50.940;5.282;2023-10-09T14:30:36;22.20;99.90
27667;DHT22;15074;50.940;5.282;2023-10-09T14:33:11;22.10;99.90
27667;DHT22;15074;50.940;5.282;2023-10-09T14:35:48;22.10;99.90
27667;DHT22;15074;50.940;5.282;2023-10-09T14:38:14;22.30;99.90
27667;DHT22;15074;50.940;5.282;2023-10-09T14:40:44;22.10;99.90
27667;DHT22;15074;50.940;5.282;2023-10-09T14:43:10;22.00;99.90
27667;DHT22;15074;50.940;5.282;2023-10-09T14:45:48;22.00;99.90
27667;DHT22;15074;50.940;5.282;2023-10-09T14:48:17;22.10;99.90
27667;DHT22;15074;50.940;5.282;2023-10-09T14:50:52;22.10;99.90
27667;DHT22;15074;50.940;5.282;2023-10-09T14:53:30;22.00;99.90
27667;DHT22;15074;50.940;5.282;2023-10-09T14:55:59;22.00;99.90
27667;DHT22;15074;50.940;5.282;2023-10-09T14:58:27;21.90;99.90
27667;DHT22;15074;50.940;5.282;2023-10-09T15:00:55;21.80;99.90
27667;DHT22;15074;50.940;5.282;2023-10-09T15:03:21;21.80;99.90
27667;DHT22;15074;50.940;5.282;2023-10-09T15:05:47;21.90;99.90
27667;DHT22;15074;50.940;5.282;2023-10-09T15:08:13;21.80;99.90
27667;DHT22;15074;50.940;5.282;2023-10-09T15:10:50;21.70;99.90
27667;DHT22;15074;50.940;5.282;2023-10-09T15:13:17;21.80;99.90
27667;DHT22;15074;50.940;5.282;2023-10-09T15:15:44;21.80;99.90
27667;DHT22;15074;50.940;5.282;2023-10-09T15:18:11;22.00;99.90
27667;DHT22;15074;50.940;5.282;2023-10-09T15:20:40;22.10;99.90
27667;DHT22;15074;50.940;5.282;2023-10-09T15:23:07;22.00;99.90
27667;DHT22;15074;50.940;5.282;2023-10-09T15:25:34;21.90;99.90
27667;DHT22;15074;50.940;5.282;2023-10-09T15:28:01;22.00;99.90
27667;DHT22;15074;50.940;5.282;2023-10-09T15:30:26;21.70;99.90
27667;DHT22;15074;50.940;5.282;2023-10-09T15:32:52;21.60;99.90
27667;DHT22;15074;50.940;5.282;2023-10-09T15:35:17;21.50;99.90
27667;DHT22;15074;50.940;5.282;2023-10-09T15:37:44;21.60;99.90
27667;DHT22;15074;50.940;5.282;2023-10-09T15:40:11;21.40;99.90
27667;DHT22;15074;50.940;5.282;2023-10-09T15:42:44;21.40;99.90
27667;DHT22;15074;50.940;5.282;2023-10-09T15:45:15;21.20;99.90
27667;DHT22;15074;50.940;5.282;2023-10-09T15:47:41;21.20;99.90
27667;DHT22;15074;50.940;5.282;2023-10-09T15:50:10;21.30;99.90
27667;DHT22;15074;50.940;5.282;2023-10-09T15:52:38;21.30;99.90
27667;DHT22;15074;50.940;5.282;2023-10-09T15:55:06;21.30;99.90
27667;DHT22;15074;50.940;5.282;2023-10-09T15:57:41;21.20;99.90
27667;DHT22;15074;50.940;5.282;2023-10-09T16:00:08;21.00;99.90
27667;DHT22;15074;50.940;5.282;2023-10-09T16:02:47;20.90;99.90
27667;DHT22;15074;50.940;5.282;2023-10-09T16:05:14;20.80;99.90
27667;DHT22;15074;50.940;5.282;2023-10-09T16:07:42;20.70;99.90
27667;DHT22;15074;50.940;5.282;2023-10-09T16:10:09;20.60;99.90
27667;DHT22;15074;50.940;5.282;2023-10-09T16:12:39;20.50;99.90
27667;DHT22;15074;50.940;5.282;2023-10-09T16:15:05;20.50;99.90
27667;DHT22;15074;50.940;5.282;2023-10-09T16:17:32;20.20;99.90
27667;DHT22;15074;50.940;5.282;2023-10-09T16:19:59;20.10;99.90